sensor_id;sensor_type;location;lat;lon;timestamp;temperature;humidity
50606;DHT22;36557;53.572;10.170;2023-05-27T07:47:40;16.90;99.90
50606;DHT22;36557;53.572;10.170;2023-05-27T07:50:07;16.70;99.90
50606;DHT22;36557;53.572;10.170;2023-05-27T07:52:33;16.80;99.90
50606;DHT22;36557;53.572;10.170;2023-05-27T07:54:59;16.90;99.90
50606;DHT22;36557;53.572;10.170;2023-05-27T07:57:25;16.90;99.90
50606;DHT22;36557;53.572;10.170;2023-05-27T07:59:51;16.80;99.90
50606;DHT22;36557;53.572;10.170;2023-05-27T08:02:16;16.90;99.90
50606;DHT22;36557;53.572;10.170;2023-05-27T08:04:42;16.50;99.90
50606;DHT22;36557;53.572;10.170;2023-05-27T08:07:09;17.40;99.90
50606;DHT22;36557;53.572;10.170;2023-05-27T08:09:35;17.50;99.90
50606;DHT22;36557;53.572;10.170;2023-05-27T08:12:00;18.10;99.90
50606;DHT22;36557;53.572;10.170;2023-05-27T08:14:26;18.10;98.70
50606;DHT22;36557;53.572;10.170;2023-05-27T08:16:54;17.90;99.90
50606;DHT22;36557;53.572;10.170;2023-05-27T08:19:19;17.90;99.90
50606;DHT22;36557;53.572;10.170;2023-05-27T08:21:45;17.50;99.60
50606;DHT22;36557;53.572;10.170;2023-05-27T08:24:11;17.60;99.90
50606;DHT22;36557;53.572;10.170;2023-05-27T08:26:37;17.80;99.90
50606;DHT22;36557;53.572;10.170;2023-05-27T08:29:03;17.90;99.40
50606;DHT22;36557;53.572;10.170;2023-05-27T08:31:30;17.40;99.30
50606;DHT22;36557;53.572;10.170;2023-05-27T08:33:56;17.20;99.90
50606;DHT22;36557;53.572;10.170;2023-05-27T08:36:22;16.50;99.80
50606;DHT22;36557;53.572;10.170;2023-05-27T08:38:48;16.20;99.90
50606;DHT22;36557;53.572;10.170;2023-05-27T08:41:14;16.70;99.90
50606;DHT22;36557;53.572;10.170;2023-05-27T08:43:41;17.20;99.90
50606;DHT22;36557;53.572;10.170;2023-05-27T08:46:07;16.50;99.90
50606;DHT22;36557;53.572;10.170;2023-05-27T08:48:33;16.70;99.90
50606;DHT22;36557;53.572;10.170;2023-05-27T08:50:59;16.30;99.20
50606;DHT22;36557;53.572;10.170;2023-05-27T08:53:28;16.30;99.90
50606;DHT22;36557;53.572;10.170;2023-05-27T08:55:55;16.10;99.90
50606;DHT22;36557;53.572;10.170;2023-05-27T08:58:21;16.10;99.90
50606;DHT22;36557;53.572;10.170;2023-05-27T09:00:48;16.20;99.90
50606;DHT22;36557;53.572;10.170;2023-05-27T09:03:13;16.10;99.90
50606;DHT22;36557;53.572;10.170;2023-05-27T09:05:40;16.60;99.90
50606;DHT22;36557;53.572;10.170;2023-05-27T09:08:06;16.80;99.00
50606;DHT22;36557;53.572;10.170;2023-05-27T09:10:36;17.30;99.20
50606;DHT22;36557;53.572;10.170;2023-05-27T09:13:02;17.70;98.00
50606;DHT22;36557;53.572;10.170;2023-05-27T09:15:32;18.50;97.00
50606;DHT22;36557;53.572;10.170;2023-05-27T09:17:58;18.40;97.50
50606;DHT22;36557;53.572;10.170;2023-05-27T09:20:25;18.10;97.20
50606;DHT22;36557;53.572;10.170;2023-05-27T09:23:00;18.30;97.80
50606;DHT22;36557;53.572;10.170;2023-05-27T09:25:26;18.00;96.70
50606;DHT22;36557;53.572;10.170;2023-05-27T09:27:53;18.80;97.30
50606;DHT22;36557;53.572;10.170;2023-05-27T09:30:20;19.10;95.60
50606;DHT22;36557;53.572;10.170;2023-05-27T09:32:47;19.80;96.80
50606;DHT22;36557;53.572;10.170;2023-05-27T09:35:14;19.30;94.60
50606;DHT22;36557;53.572;10.170;2023-05-27T09:37:40;20.60;96.90
50606;DHT22;36557;53.572;10.170;2023-05-27T09:40:11;20.30;93.50
50606;DHT22;36557;53.572;10.170;2023-05-27T09:42:48;21.30;95.10
50606;DHT22;36557;53.572;10.170;2023-05-27T09:45:16;21.30;94.50
50606;DHT22;36557;53.572;10.170;2023-05-27T09:47:47;21.00;92.10
50606;DHT22;36557;53.572;10.170;2023-05-27T09:50:13;20.90;92.30
50606;DHT22;36557;53.572;10.170;2023-05-27T09:52:40;21.10;91.90
50606;DHT22;36557;53.572;10.170;2023-05-27T09:55:07;20.40;91.20
50606;DHT22;36557;53.572;10.170;2023-05-27T09:57:34;20.40;93.70
50606;DHT22;36557;53.572;10.170;2023-05-27T10:00:03;20.90;91.50
50606;DHT22;36557;53.572;10.170;2023-05-27T10:02:35;20.90;90.60
50606;DHT22;36557;53.572;10.170;2023-05-27T10:05:03;20.00;90.50
50606;DHT22;36557;53.572;10.170;2023-05-27T10:07:37;19.80;93.80
50606;DHT22;36557;53.572;10.170;2023-05-27T10:10:14;19.80;91.90
50606;DHT22;36557;53.572;10.170;2023-05-27T10:12:46;20.10;91.80
50606;DHT22;36557;53.572;10.170;2023-05-27T10:15:29;19.00;91.30
50606;DHT22;36557;53.572;10.170;2023-05-27T10:18:02;18.70;92.40
50606;DHT22;36557;53.572;10.170;2023-05-27T10:20:32;18.30;93.50
50606;DHT22;36557;53.572;10.170;2023-05-27T10:23:23;19.10;93.90
50606;DHT22;36557;53.572;10.170;2023-05-27T10:26:01;20.10;92.80
50606;DHT22;36557;53.572;10.170;2023-05-27T10:31:19;19.10;91.10
50606;DHT22;36557;53.572;10.170;2023-05-27T10:33:48;19.30;91.70
50606;DHT22;36557;53.572;10.170;2023-05-27T10:39:15;19.80;92.10
50606;DHT22;36557;53.572;10.170;2023-05-27T10:41:50;20.60;91.20
50606;DHT22;36557;53.572;10.170;2023-05-27T10:44:31;20.40;90.30
50606;DHT22;36557;53.572;10.170;2023-05-27T10:49:27;20.20;90.20
50606;DHT22;36557;53.572;10.170;2023-05-27T10:54:25;20.90;93.30
50606;DHT22;36557;53.572;10.170;2023-05-27T10:56:51;21.00;91.30
50606;DHT22;36557;53.572;10.170;2023-05-27T10:59:20;21.30;95.20
50606;DHT22;36557;53.572;10.170;2023-05-27T11:01:51;21.50;99.90
50606;DHT22;36557;53.572;10.170;2023-05-27T11:04:17;21.80;87.30
50606;DHT22;36557;53.572;10.170;2023-05-27T11:06:56;21.40;87.50
50606;DHT22;36557;53.572;10.170;2023-05-27T11:09:23;22.00;85.70
50606;DHT22;36557;53.572;10.170;2023-05-27T11:11:49;21.40;86.80
50606;DHT22;36557;53.572;10.170;2023-05-27T11:14:15;21.90;83.90
50606;DHT22;36557;53.572;10.170;2023-05-27T11:16:41;22.10;87.00
50606;DHT22;36557;53.572;10.170;2023-05-27T11:19:11;23.00;82.80
50606;DHT22;36557;53.572;10.170;2023-05-27T11:21:44;23.20;81.70
50606;DHT22;36557;53.572;10.170;2023-05-27T11:24:19;23.40;83.80
50606;DHT22;36557;53.572;10.170;2023-05-27T11:26:46;23.00;84.70
50606;DHT22;36557;53.572;10.170;2023-05-27T11:29:13;23.00;83.40
50606;DHT22;36557;53.572;10.170;2023-05-27T11:31:40;22.70;81.80
50606;DHT22;36557;53.572;10.170;2023-05-27T11:34:16;22.20;85.20
50606;DHT22;36557;53.572;10.170;2023-05-27T11:36:48;22.90;84.40
50606;DHT22;36557;53.572;10.170;2023-05-27T11:39:15;22.90;81.10
50606;DHT22;36557;53.572;10.170;2023-05-27T11:41:51;23.80;83.10
50606;DHT22;36557;53.572;10.170;2023-05-27T11:44:18;24.50;82.20
50606;DHT22;36557;53.572;10.170;2023-05-27T11:46:46;24.00;78.90
50606;DHT22;36557;53.572;10.170;2023-05-27T11:49:13;23.10;76.70
50606;DHT22;36557;53.572;10.170;2023-05-27T11:51:41;23.50;78.30
50606;DHT22;36557;53.572;10.170;2023-05-27T11:54:16;23.60;77.20
50606;DHT22;36557;53.572;10.170;2023-05-27T11:56:42;23.50;77.70
50606;DHT22;36557;53.572;10.170;2023-05-27T11:59:08;23.70;77.70
50606;DHT22;36557;53.572;10.170;2023-05-27T12:01:33;23.10;77.10
50606;DHT22;36557;53.572;10.170;2023-05-27T12:03:59;22.20;78.20
50606;DHT22;36557;53.572;10.170;2023-05-27T12:06:25;22.00;79.90
50606;DHT22;36557;53.572;10.170;2023-05-27T12:08:50;23.00;77.10
50606;DHT22;36557;53.572;10.170;2023-05-27T12:11:16;23.00;74.70
50606;DHT22;36557;53.572;10.170;2023-05-27T12:13:42;23.00;76.90
50606;DHT22;36557;53.572;10.170;2023-05-27T12:16:07;22.70;78.30
50606;DHT22;36557;53.572;10.170;2023-05-27T12:18:33;23.90;78.10
50606;DHT22;36557;53.572;10.170;2023-05-27T12:20:59;22.90;75.60
50606;DHT22;36557;53.572;10.170;2023-05-27T12:23:25;22.30;78.10
50606;DHT22;36557;53.572;10.170;2023-05-27T12:25:51;21.90;78.50
50606;DHT22;36557;53.572;10.170;2023-05-27T12:28:16;22.30;78.70
50606;DHT22;36557;53.572;10.170;2023-05-27T12:30:42;22.60;75.60
50606;DHT22;36557;53.572;10.170;2023-05-27T12:33:08;23.40;77.90
50606;DHT22;36557;53.572;10.170;2023-05-27T12:35:33;23.90;74.40
50606;DHT22;36557;53.572;10.170;2023-05-27T12:38:00;23.10;76.30
50606;DHT22;36557;53.572;10.170;2023-05-27T12:40:26;23.50;76.20
50606;DHT22;36557;53.572;10.170;2023-05-27T12:42:53;23.30;76.00
50606;DHT22;36557;53.572;10.170;2023-05-27T12:45:18;22.20;75.00
50606;DHT22;36557;53.572;10.170;2023-05-27T12:47:48;22.10;79.90
50606;DHT22;36557;53.572;10.170;2023-05-27T12:50:14;21.40;76.90
50606;DHT22;36557;53.572;10.170;2023-05-27T12:52:40;21.60;79.80
50606;DHT22;36557;53.572;10.170;2023-05-27T12:55:14;20.80;75.90
50606;DHT22;36557;53.572;10.170;2023-05-27T12:57:40;20.90;76.40
50606;DHT22;36557;53.572;10.170;2023-05-27T13:00:06;21.70;79.00
50606;DHT22;36557;53.572;10.170;2023-05-27T13:02:32;21.90;77.70
50606;DHT22;36557;53.572;10.170;2023-05-27T13:04:58;22.30;74.20
50606;DHT22;36557;53.572;10.170;2023-05-27T13:07:26;22.00;76.10
50606;DHT22;36557;53.572;10.170;2023-05-27T13:09:51;22.40;75.90
50606;DHT22;36557;53.572;10.170;2023-05-27T13:12:17;22.40;78.80
50606;DHT22;36557;53.572;10.170;2023-05-27T13:14:43;22.50;75.00
50606;DHT22;36557;53.572;10.170;2023-05-27T13:17:09;22.80;77.30
50606;DHT22;36557;53.572;10.170;2023-05-27T13:19:35;23.40;72.90
50606;DHT22;36557;53.572;10.170;2023-05-27T13:22:01;23.50;77.00
50606;DHT22;36557;53.572;10.170;2023-05-27T13:24:26;24.20;74.70
50606;DHT22;36557;53.572;10.170;2023-05-27T13:26:52;24.90;75.00
50606;DHT22;36557;53.572;10.170;2023-05-27T13:29:18;23.60;76.30
50606;DHT22;36557;53.572;10.170;2023-05-27T13:31:43;23.50;79.10
50606;DHT22;36557;53.572;10.170;2023-05-27T13:34:11;23.70;74.10
50606;DHT22;36557;53.572;10.170;2023-05-27T13:36:37;23.70;85.90
50606;DHT22;36557;53.572;10.170;2023-05-27T13:39:03;22.40;71.50
50606;DHT22;36557;53.572;10.170;2023-05-27T13:41:28;22.10;75.10
50606;DHT22;36557;53.572;10.170;2023-05-27T13:43:54;21.90;73.30
50606;DHT22;36557;53.572;10.170;2023-05-27T13:46:20;21.80;73.80
50606;DHT22;36557;53.572;10.170;2023-05-27T13:48:46;22.10;78.30
50606;DHT22;36557;53.572;10.170;2023-05-27T13:51:11;23.80;75.10
50606;DHT22;36557;53.572;10.170;2023-05-27T13:53:37;24.40;71.70
50606;DHT22;36557;53.572;10.170;2023-05-27T13:56:03;24.50;74.40
50606;DHT22;36557;53.572;10.170;2023-05-27T13:58:28;24.50;81.80
50606;DHT22;36557;53.572;10.170;2023-05-27T14:00:54;24.10;72.20
50606;DHT22;36557;53.572;10.170;2023-05-27T14:03:21;23.70;72.20
50606;DHT22;36557;53.572;10.170;2023-05-27T14:05:48;24.20;72.40
50606;DHT22;36557;53.572;10.170;2023-05-27T14:08:15;24.50;70.20
50606;DHT22;36557;53.572;10.170;2023-05-27T14:10:41;23.60;71.20
50606;DHT22;36557;53.572;10.170;2023-05-27T14:13:07;23.70;73.90
50606;DHT22;36557;53.572;10.170;2023-05-27T14:15:33;22.60;71.30
50606;DHT22;36557;53.572;10.170;2023-05-27T14:17:59;22.70;74.50
50606;DHT22;36557;53.572;10.170;2023-05-27T14:20:30;22.60;72.80
50606;DHT22;36557;53.572;10.170;2023-05-27T14:22:56;22.60;74.20
50606;DHT22;36557;53.572;10.170;2023-05-27T14:25:24;22.20;73.10
50606;DHT22;36557;53.572;10.170;2023-05-27T14:27:50;22.80;74.50
50606;DHT22;36557;53.572;10.170;2023-05-27T14:30:16;22.70;72.80
50606;DHT22;36557;53.572;10.170;2023-05-27T14:32:42;22.50;73.20
50606;DHT22;36557;53.572;10.170;2023-05-27T14:35:08;22.10;74.30
50606;DHT22;36557;53.572;10.170;2023-05-27T14:37:34;22.40;75.50
50606;DHT22;36557;53.572;10.170;2023-05-27T14:40:00;22.70;71.80
50606;DHT22;36557;53.572;10.170;2023-05-27T14:42:26;23.00;73.90
50606;DHT22;36557;53.572;10.170;2023-05-27T14:44:51;22.70;73.90
50606;DHT22;36557;53.572;10.170;2023-05-27T14:47:17;22.90;76.70
50606;DHT22;36557;53.572;10.170;2023-05-27T14:49:43;22.90;73.20
50606;DHT22;36557;53.572;10.170;2023-05-27T14:52:09;22.50;75.00
50606;DHT22;36557;53.572;10.170;2023-05-27T14:54:35;22.90;73.80
50606;DHT22;36557;53.572;10.170;2023-05-27T14:57:01;22.50;73.10
50606;DHT22;36557;53.572;10.170;2023-05-27T14:59:26;21.80;74.50
50606;DHT22;36557;53.572;10.170;2023-05-27T15:01:52;21.90;76.30
50606;DHT22;36557;53.572;10.170;2023-05-27T15:04:17;21.70;72.90
50606;DHT22;36557;53.572;10.170;2023-05-27T15:06:43;21.60;76.10
50606;DHT22;36557;53.572;10.170;2023-05-27T15:09:09;21.60;77.40
50606;DHT22;36557;53.572;10.170;2023-05-27T15:11:38;21.70;77.60
50606;DHT22;36557;53.572;10.170;2023-05-27T15:14:04;21.70;77.50
50606;DHT22;36557;53.572;10.170;2023-05-27T15:16:29;21.90;76.10
50606;DHT22;36557;53.572;10.170;2023-05-27T15:18:57;22.30;78.70
50606;DHT22;36557;53.572;10.170;2023-05-27T15:21:25;22.00;75.70
50606;DHT22;36557;53.572;10.170;2023-05-27T15:23:51;21.80;75.90
50606;DHT22;36557;53.572;10.170;2023-05-27T15:26:17;21.40;76.10
50606;DHT22;36557;53.572;10.170;2023-05-27T15:28:43;21.60;76.10
50606;DHT22;36557;53.572;10.170;2023-05-27T15:31:09;21.70;76.40
50606;DHT22;36557;53.572;10.170;2023-05-27T15:33:35;22.00;77.00
50606;DHT22;36557;53.572;10.170;2023-05-27T15:36:01;21.90;77.10
50606;DHT22;36557;53.572;10.170;2023-05-27T15:38:26;22.10;78.10
50606;DHT22;36557;53.572;10.170;2023-05-27T15:40:52;21.80;78.70
50606;DHT22;36557;53.572;10.170;2023-05-27T15:43:18;21.20;75.20
50606;DHT22;36557;53.572;10.170;2023-05-27T15:45:44;21.90;77.40
50606;DHT22;36557;53.572;10.170;2023-05-27T15:48:09;21.90;78.00
50606;DHT22;36557;53.572;10.170;2023-05-27T15:50:36;21.90;79.00
50606;DHT22;36557;53.572;10.170;2023-05-27T15:53:05;21.80;77.90
50606;DHT22;36557;53.572;10.170;2023-05-27T15:55:31;21.50;77.00
50606;DHT22;36557;53.572;10.170;2023-05-27T15:57:57;21.50;77.50
50606;DHT22;36557;53.572;10.170;2023-05-27T16:00:22;21.40;78.80
50606;DHT22;36557;53.572;10.170;2023-05-27T16:02:48;21.60;78.70
50606;DHT22;36557;53.572;10.170;2023-05-27T16:05:14;21.30;78.10
50606;DHT22;36557;53.572;10.170;2023-05-27T16:07:43;21.30;77.70
50606;DHT22;36557;53.572;10.170;2023-05-27T16:10:09;21.10;77.70
50606;DHT22;36557;53.572;10.170;2023-05-27T16:12:35;21.60;77.00
50606;DHT22;36557;53.572;10.170;2023-05-27T16:15:01;21.60;77.20
50606;DHT22;36557;53.572;10.170;2023-05-27T16:17:26;21.70;76.30
50606;DHT22;36557;53.572;10.170;2023-05-27T16:19:54;21.30;77.50
50606;DHT22;36557;53.572;10.170;2023-05-27T16:22:19;21.40;76.70
50606;DHT22;36557;53.572;10.170;2023-05-27T16:24:45;21.40;77.50
50606;DHT22;36557;53.572;10.170;2023-05-27T16:27:11;21.50;78.50
50606;DHT22;36557;53.572;10.170;2023-05-27T16:29:36;21.10;77.50
50606;DHT22;36557;53.572;10.170;2023-05-27T16:32:02;21.10;77.50
50606;DHT22;36557;53.572;10.170;2023-05-27T16:34:27;21.20;77.60
50606;DHT22;36557;53.572;10.170;2023-05-27T16:36:54;21.10;77.30
50606;DHT22;36557;53.572;10.170;2023-05-27T16:39:20;20.90;79.60
50606;DHT22;36557;53.572;10.170;2023-05-27T17:18:32;21.40;99.90
50606;DHT22;36557;53.572;10.170;2023-05-27T17:20:58;21.20;98.80
50606;DHT22;36557;53.572;10.170;2023-05-27T18:29:36;20.20;79.70
50606;DHT22;36557;53.572;10.170;2023-05-27T18:32:02;20.00;78.70
50606;DHT22;36557;53.572;10.170;2023-05-27T18:34:27;19.80;79.30
50606;DHT22;36557;53.572;10.170;2023-05-27T18:36:53;19.60;79.60
50606;DHT22;36557;53.572;10.170;2023-05-27T18:39:19;19.70;80.00
50606;DHT22;36557;53.572;10.170;2023-05-27T18:41:44;19.70;79.80
50606;DHT22;36557;53.572;10.170;2023-05-27T18:44:10;19.60;80.70
50606;DHT22;36557;53.572;10.170;2023-05-27T18:46:37;19.50;80.80
